Observation data for Ralls on 02/09/2018      Previous  Date  Next       Current Mesonet Observations  Soil Data  Daily Summary Page  Observations in Plain Language
KRLS 090600Z 20008KT 02/M08 A301 RMK A01 T00221079  RH  048%=      5-min Rain = 0
KRLS 090605Z 20008KT 02/M08 A301 RMK A01 T00181081  RH  048%=      5-min Rain = 0
KRLS 090610Z 20008KT 01/M08 A3009 RMK A01 T00141083  RH  049%=      5-min Rain = 0
KRLS 090615Z 19007KT 01/M08 A3009 RMK A01 T00121082  RH  050%=      5-min Rain = 0
KRLS 090620Z 20008KT 01/M08 A3009 RMK A01 T00121080  RH  051%=      5-min Rain = 0
KRLS 090625Z 20007KT 01/M08 A3009 RMK A01 T00141078  RH  051%=      5-min Rain = 0
KRLS 090630Z 20007KT 02/M08 A3009 RMK A01 T00161076  RH  051%=      5-min Rain = 0
KRLS 090635Z 19007KT 02/M08 A3008 RMK A01 T00161076  RH  051%=      5-min Rain = 0
KRLS 090640Z 20007KT 01/M08 A3008 RMK A01 T00131076  RH  052%=      5-min Rain = 0
KRLS 090645Z 20007KT 01/M08 A3008 RMK A01 T00101078  RH  052%=      5-min Rain = 0
KRLS 090650Z 21009KT 01/M08 A3008 RMK A01 T00111075  RH  054%=      5-min Rain = 0
KRLS 090655Z 21010KT 02/M07 A3008 RMK A01 T00241065  RH  052%=      5-min Rain = 0
KRLS 090700Z 21010KT 03/M06 A3008 RMK A01 T00281064  RH  051%=      5-min Rain = 0
KRLS 090705Z 21010KT 03/M06 A3007 RMK A01 T00291064  RH  051%=      5-min Rain = 0
KRLS 090710Z 21009KT 03/M07 A3007 RMK A01 T00271065  RH  051%=      5-min Rain = 0
KRLS 090715Z 21009KT 02/M07 A3007 RMK A01 T00201069  RH  053%=      5-min Rain = 0
KRLS 090720Z 21010KT 02/M07 A3007 RMK A01 T00241065  RH  052%=      5-min Rain = 0
KRLS 090725Z 22010KT 02/M07 A3007 RMK A01 T00231066  RH  052%=      5-min Rain = 0
KRLS 090730Z 22010KT 02/M06 A3007 RMK A01 T00241063  RH  053%=      5-min Rain = 0
KRLS 090735Z 22010KT 03/M06 A3007 RMK A01 T00251063  RH  053%=      5-min Rain = 0
KRLS 090740Z 22010KT 02/M06 A3007 RMK A01 T00241062  RH  053%=      5-min Rain = 0
KRLS 090745Z 22010KT 03/M06 A3007 RMK A01 T00251061  RH  053%=      5-min Rain = 0
KRLS 090750Z 22010KT 03/M06 A3007 RMK A01 T00271060  RH  053%=      5-min Rain = 0
KRLS 090755Z 22011KT 03/M06 A3007 RMK A01 T00321056  RH  053%=      5-min Rain = 0
KRLS 090800Z 22012KT 04/M05 A3006 RMK A01 T00391053  RH  051%=      5-min Rain = 0
KRLS 090805Z 22012KT 05/M05 A3006 RMK A01 T00451052  RH  050%=      5-min Rain = 0
KRLS 090810Z 22012KT 05/M05 A3005 RMK A01 T00451052  RH  050%=      5-min Rain = 0
KRLS 090815Z 22011KT 04/M05 A3005 RMK A01 T00431053  RH  050%=      5-min Rain = 0
KRLS 090820Z 21010KT 04/M05 A3005 RMK A01 T00421053  RH  051%=      5-min Rain = 0
KRLS 090825Z 22010KT 04/M05 A3005 RMK A01 T00401054  RH  051%=      5-min Rain = 0
KRLS 090830Z 22011KT 04/M05 A3004 RMK A01 T00381054  RH  052%=      5-min Rain = 0
KRLS 090835Z 22011KT 04/M05 A3004 RMK A01 T00391053  RH  052%=      5-min Rain = 0
KRLS 090840Z 22011KT 04/M05 A3004 RMK A01 T00391053  RH  052%=      5-min Rain = 0
KRLS 090845Z 22011KT 04/M05 A3004 RMK A01 T00401052  RH  052%=      5-min Rain = 0
KRLS 090850Z 22010KT 04/M05 A3004 RMK A01 T00401052  RH  052%=      5-min Rain = 0
KRLS 090855Z 22010KT 04/M05 A3003 RMK A01 T00381053  RH  052%=      5-min Rain = 0
KRLS 090900Z 22010KT 04/M05 A3003 RMK A01 T00371052  RH  053%=      5-min Rain = 0
KRLS 090905Z 22010KT 03/M05 A3003 RMK A01 T00331053  RH  054%=      5-min Rain = 0
KRLS 090910Z 23011KT 03/M05 A3003 RMK A01 T00321053  RH  054%=      5-min Rain = 0
KRLS 090915Z 22010KT 03/M05 A3003 RMK A01 T00331053  RH  054%=      5-min Rain = 0
KRLS 090920Z 23010KT 03/M05 A3003 RMK A01 T00291054  RH  055%=      5-min Rain = 0
KRLS 090925Z 23008KT 03/M05 A3003 RMK A01 T00311053  RH  054%=      5-min Rain = 0
KRLS 090930Z 23007KT 03/M06 A3002 RMK A01 T00291055  RH  055%=      5-min Rain = 0
KRLS 090935Z 23008KT 03/M06 A3002 RMK A01 T00291055  RH  055%=      5-min Rain = 0
KRLS 090940Z 23007KT 03/M06 A3002 RMK A01 T00271057  RH  055%=      5-min Rain = 0
KRLS 090945Z 23007KT 02/M06 A3002 RMK A01 T00221058  RH  056%=      5-min Rain = 0
KRLS 090950Z 23008KT 02/M06 A3002 RMK A01 T00201058  RH  057%=      5-min Rain = 0
KRLS 090955Z 23009KT 02/M06 A3002 RMK A01 T00241056  RH  056%=      5-min Rain = 0
KRLS 091000Z 23009KT 02/M06 A3002 RMK A01 T00211059  RH  056%=      5-min Rain = 0
KRLS 091005Z 22009KT 02/M06 A3002 RMK A01 T00211058  RH  056%=      5-min Rain = 0
KRLS 091010Z 22010KT 02/M06 A3002 RMK A01 T00171060  RH  057%=      5-min Rain = 0
KRLS 091015Z 22009KT 01/M06 A3001 RMK A01 T00131062  RH  058%=      5-min Rain = 0
KRLS 091020Z 23009KT 01/M06 A3001 RMK A01 T00101063  RH  059%=      5-min Rain = 0
KRLS 091025Z 22009KT 01/M06 A3001 RMK A01 T00141062  RH  058%=      5-min Rain = 0
KRLS 091030Z 22011KT 02/M06 A3001 RMK A01 T00161060  RH  057%=      5-min Rain = 0
KRLS 091035Z 22011KT 02/M06 A30 RMK A01 T00161060  RH  057%=      5-min Rain = 0
KRLS 091040Z 22011KT 02/M06 A30 RMK A01 T00191057  RH  058%=      5-min Rain = 0
KRLS 091045Z 22011KT 03/M05 A30 RMK A01 T00271053  RH  056%=      5-min Rain = 0
KRLS 091050Z 22011KT 03/M05 A30 RMK A01 T00251054  RH  056%=      5-min Rain = 0
KRLS 091055Z 22010KT 03/M05 A30 RMK A01 T00271053  RH  056%=      5-min Rain = 0
KRLS 091100Z 22010KT 03/M05 A2999 RMK A01 T00271054  RH  056%=      5-min Rain = 0
KRLS 091105Z 22010KT 02/M06 A2999 RMK A01 T00241056  RH  056%=      5-min Rain = 0
KRLS 091110Z 22010KT 02/M06 A2999 RMK A01 T00221057  RH  057%=      5-min Rain = 0
KRLS 091115Z 22010KT 02/M06 A2999 RMK A01 T00211057  RH  057%=      5-min Rain = 0
KRLS 091120Z 23009KT 02/M06 A2999 RMK A01 T00201059  RH  056%=      5-min Rain = 0
KRLS 091125Z 23009KT 02/M06 A2999 RMK A01 T00201059  RH  057%=      5-min Rain = 0
KRLS 091130Z 23010KT 02/M06 A2999 RMK A01 T00201058  RH  057%=      5-min Rain = 0
KRLS 091135Z 23011KT 02/M06 A2998 RMK A01 T00241057  RH  056%=      5-min Rain = 0
KRLS 091140Z 24011KT 03/M06 A2998 RMK A01 T00251057  RH  055%=      5-min Rain = 0
KRLS 091145Z 24010KT 02/M06 A2998 RMK A01 T00231058  RH  055%=      5-min Rain = 0
KRLS 091150Z 24009KT 02/M06 A2999 RMK A01 T00211059  RH  056%=      5-min Rain = 0
KRLS 091155Z 24010KT 02/M06 A2999 RMK A01 T00221059  RH  056%=      5-min Rain = 0
KRLS 091200Z 24008KT 02/M06 A2999 RMK A01 T00191061  RH  056%=      5-min Rain = 0
KRLS 091205Z 25009KT 02/M06 A2999 RMK A01 T00171060  RH  057%=      5-min Rain = 0
KRLS 091210Z 24009KT 02/M06 A2999 RMK A01 T00181060  RH  057%=      5-min Rain = 0
KRLS 091215Z 25010KT 02/M06 A2999 RMK A01 T00201059  RH  057%=      5-min Rain = 0
KRLS 091220Z 24010KT 02/M06 A2999 RMK A01 T00211059  RH  056%=      5-min Rain = 0
KRLS 091225Z 24010KT 02/M06 A2999 RMK A01 T00201058  RH  057%=      5-min Rain = 0
KRLS 091230Z 25009KT 02/M06 A2999 RMK A01 T00211057  RH  057%=      5-min Rain = 0
KRLS 091235Z 24010KT 03/M06 A2999 RMK A01 T00251055  RH  056%=      5-min Rain = 0
KRLS 091240Z 24011G16KT 03/M05 A2999 RMK A01 T00281053  RH  056%=      5-min Rain = 0
KRLS 091245Z 25011KT 03/M05 A2999 RMK A01 T00311052  RH  055%=      5-min Rain = 0
KRLS 091250Z 25012KT 03/M05 A2999 RMK A01 T00321052  RH  055%=      5-min Rain = 0
KRLS 091255Z 24012KT 04/M05 A2999 RMK A01 T00361050  RH  054%=      5-min Rain = 0
KRLS 091300Z 24012KT 04/M05 A2999 RMK A01 T00361051  RH  054%=      5-min Rain = 0
KRLS 091305Z 24014KT 04/M05 A2999 RMK A01 T00371050  RH  053%=      5-min Rain = 0
KRLS 091310Z 24013KT 04/M05 A2999 RMK A01 T00371050  RH  053%=      5-min Rain = 0
KRLS 091315Z 24013KT 04/M05 A2999 RMK A01 T00371050  RH  053%=      5-min Rain = 0
KRLS 091320Z 24012KT 04/M05 A2999 RMK A01 T00351052  RH  054%=      5-min Rain = 0
KRLS 091325Z 24011KT 03/M05 A2999 RMK A01 T00341052  RH  054%=      5-min Rain = 0
KRLS 091330Z 24011KT 03/M05 A2999 RMK A01 T00321053  RH  054%=      5-min Rain = 0
KRLS 091335Z 24010KT 03/M05 A2999 RMK A01 T00301053  RH  055%=      5-min Rain = 0
KRLS 091340Z 24011G16KT 03/M05 A2999 RMK A01 T00301053  RH  055%=      5-min Rain = 0
KRLS 091345Z 25010KT 03/M05 A2999 RMK A01 T00291054  RH  055%=      5-min Rain = 0
KRLS 091350Z 25011KT 03/M05 A2999 RMK A01 T00301054  RH  055%=      5-min Rain = 0
KRLS 091355Z 24010KT 03/M05 A2999 RMK A01 T00291054  RH  055%=      5-min Rain = 0
KRLS 091400Z 24010KT 03/M06 A2999 RMK A01 T00281055  RH  055%=      5-min Rain = 0
KRLS 091405Z 25010G16KT 03/M05 A30 RMK A01 T00301053  RH  055%=      5-min Rain = 0
KRLS 091410Z 25011KT 03/M05 A30 RMK A01 T00331053  RH  054%=      5-min Rain = 0
KRLS 091415Z 25012KT 04/M05 A30 RMK A01 T00381051  RH  053%=      5-min Rain = 0
KRLS 091420Z 25012KT 04/M05 A30 RMK A01 T00421050  RH  052%=      5-min Rain = 0
KRLS 091425Z 25012G17KT 04/M05 A30 RMK A01 T00441050  RH  051%=      5-min Rain = 0
KRLS 091430Z 25012KT 05/M05 A30 RMK A01 T00471049  RH  050%=      5-min Rain = 0
KRLS 091435Z 24013KT 05/M05 A30 RMK A01 T00501048  RH  050%=      5-min Rain = 0
KRLS 091440Z 25014KT 05/M05 A30 RMK A01 T00531048  RH  049%=      5-min Rain = 0
KRLS 091445Z 25014KT 06/M05 A30 RMK A01 T00561048  RH  048%=      5-min Rain = 0
KRLS 091450Z 24013G18KT 06/M05 A30 RMK A01 T00591048  RH  047%=      5-min Rain = 0
KRLS 091455Z 24011KT 06/M05 A30 RMK A01 T00631047  RH  046%=      5-min Rain = 0
KRLS 091500Z 24012KT 07/M05 A30 RMK A01 T00661048  RH  045%=      5-min Rain = 0
KRLS 091505Z 25012KT 07/M05 A30 RMK A01 T00681048  RH  044%=      5-min Rain = 0
KRLS 091510Z 25011KT 07/M05 A30 RMK A01 T00721048  RH  043%=      5-min Rain = 0
KRLS 091515Z 25013G18KT 08/M05 A2999 RMK A01 T00761049  RH  041%=      5-min Rain = 0
KRLS 091520Z 25013KT 08/M05 A2999 RMK A01 T00791050  RH  040%=      5-min Rain = 0
KRLS 091525Z 26015KT 08/M05 A2999 RMK A01 T00831054  RH  038%=      5-min Rain = 0
KRLS 091530Z 26013KT 09/M05 A2999 RMK A01 T00881054  RH  036%=      5-min Rain = 0
KRLS 091535Z 26015KT 09/M06 A2999 RMK A01 T00901057  RH  035%=      5-min Rain = 0
KRLS 091540Z 27012KT 10/M06 A30 RMK A01 T00961057  RH  034%=      5-min Rain = 0
KRLS 091545Z 27012G17KT 10/M06 A30 RMK A01 T01001059  RH  032%=      5-min Rain = 0
KRLS 091550Z 28010G15KT 11/M06 A30 RMK A01 T01071058  RH  031%=      5-min Rain = 0
KRLS 091555Z 28014KT 11/M06 A30 RMK A01 T01101062  RH  030%=      5-min Rain = 0
KRLS 091600Z 28012KT 12/M06 A2999 RMK A01 T01151061  RH  029%=      5-min Rain = 0
KRLS 091605Z 28014KT 12/M07 A2999 RMK A01 T01211065  RH  027%=      5-min Rain = 0
KRLS 091610Z 29016G21KT 13/M07 A2999 RMK A01 T01251069  RH  026%=      5-min Rain = 0
KRLS 091615Z 28014KT 13/M07 A2999 RMK A01 T01301068  RH  025%=      5-min Rain = 0
KRLS 091620Z 29014G19KT 14/M07 A2999 RMK A01 T01351069  RH  024%=      5-min Rain = 0
KRLS 091625Z 29014KT 14/M07 A2999 RMK A01 T01401068  RH  023%=      5-min Rain = 0
KRLS 091630Z 29014KT 14/M07 A2999 RMK A01 T01411068  RH  023%=      5-min Rain = 0
KRLS 091635Z 29013KT 14/M07 A2999 RMK A01 T01441066  RH  023%=      5-min Rain = 0
KRLS 091640Z 29012G17KT 15/M06 A2999 RMK A01 T01511064  RH  022%=      5-min Rain = 0
KRLS 091645Z 30013G19KT 16/M07 A2998 RMK A01 T01561068  RH  021%=      5-min Rain = 0
KRLS 091650Z 29013KT 16/M07 A2998 RMK A01 T01591066  RH  021%=      5-min Rain = 0
KRLS 091655Z 29013G18KT 16/M07 A2998 RMK A01 T01641067  RH  020%=      5-min Rain = 0
KRLS 091700Z 29012G17KT 17/M07 A2998 RMK A01 T01711067  RH  019%=      5-min Rain = 0
KRLS 091705Z 29014KT 17/M07 A2998 RMK A01 T01711070  RH  019%=      5-min Rain = 0
KRLS 091710Z 30014KT 18/M07 A2998 RMK A01 T01751071  RH  018%=      5-min Rain = 0
KRLS 091715Z 29012KT 18/M07 A2998 RMK A01 T01811070  RH  018%=      5-min Rain = 0
KRLS 091720Z 30012G17KT 18/M07 A2997 RMK A01 T01841071  RH  017%=      5-min Rain = 0
KRLS 091725Z 30012KT 19/M07 A2997 RMK A01 T01851071  RH  017%=      5-min Rain = 0
KRLS 091730Z 30011KT 19/M07 A2997 RMK A01 T01881071  RH  017%=      5-min Rain = 0
KRLS 091735Z 29012KT 19/M07 A2997 RMK A01 T01921072  RH  016%=      5-min Rain = 0
KRLS 091740Z 30013KT 19/M07 A2997 RMK A01 T01931073  RH  016%=      5-min Rain = 0
KRLS 091745Z 30012KT 20/M08 A2997 RMK A01 T01961075  RH  015%=      5-min Rain = 0
KRLS 091750Z 31010KT 20/M08 A2997 RMK A01 T01981076  RH  015%=      5-min Rain = 0
KRLS 091755Z 30012KT 20/M08 A2997 RMK A01 T02021077  RH  015%=      5-min Rain = 0
KRLS 091800Z 31011KT 20/M08 A2996 RMK A01 T02031077  RH  015%=      5-min Rain = 0
KRLS 091805Z 30010G17KT 20/M08 A2996 RMK A01 T02041075  RH  015%=      5-min Rain = 0
KRLS 091810Z 31011KT 20/M08 A2996 RMK A01 T02041079  RH  014%=      5-min Rain = 0
KRLS 091815Z 30009KT 21/M08 A2996 RMK A01 T02121077  RH  014%=      5-min Rain = 0
KRLS 091820Z 31009KT 21/M08 A2995 RMK A01 T02101079  RH  014%=      5-min Rain = 0
KRLS 091825Z 31008KT 21/M08 A2995 RMK A01 T02131083  RH  013%=      5-min Rain = 0
KRLS 091830Z 30008KT 21/M09 A2994 RMK A01 T02131086  RH  013%=      5-min Rain = 0
KRLS 091835Z 31007KT 22/M09 A2994 RMK A01 T02151085  RH  013%=      5-min Rain = 0
KRLS 091840Z 31007KT 22/M09 A2994 RMK A01 T02171087  RH  012%=      5-min Rain = 0
KRLS 091845Z 31006KT 22/M09 A2994 RMK A01 T02211086  RH  012%=      5-min Rain = 0
KRLS 091850Z 30007KT 22/M09 A2994 RMK A01 T02201089  RH  012%=      5-min Rain = 0
KRLS 091855Z 32008G13KT 22/M09 A2993 RMK A01 T02221089  RH  012%=      5-min Rain = 0
KRLS 091900Z 33004G9KT 22/M09 A2993 RMK A01 T02211093  RH  012%=      5-min Rain = 0
KRLS 091905Z 32005KT 22/M10 A2993 RMK A01 T02221095  RH  011%=      5-min Rain = 0
KRLS 091910Z 31005G10KT 23/M09 A2992 RMK A01 T02251091  RH  011%=      5-min Rain = 0
KRLS 091915Z 32003KT 22/M09 A2992 RMK A01 T02221090  RH  012%=      5-min Rain = 0
KRLS 091920Z 29003KT 23/M09 A2992 RMK A01 T02261090  RH  011%=      5-min Rain = 0
KRLS 091925Z 30002KT 23/M09 A2992 RMK A01 T02261091  RH  011%=      5-min Rain = 0
KRLS 091930Z 28004KT 23/M09 A2992 RMK A01 T02281090  RH  011%=      5-min Rain = 0
KRLS 091935Z 34003G9KT 23/M09 A2991 RMK A01 T02321092  RH  011%=      5-min Rain = 0
KRLS 091940Z 31003KT 23/M09 A2991 RMK A01 T02271092  RH  011%=      5-min Rain = 0
KRLS 091945Z 32005G11KT 23/M09 A2991 RMK A01 T02311090  RH  011%=      5-min Rain = 0
KRLS 091950Z 32008KT 23/M09 A2991 RMK A01 T02311092  RH  011%=      5-min Rain = 0
KRLS 091955Z 34007KT 23/M09 A2991 RMK A01 T02281093  RH  011%=      5-min Rain = 0
KRLS 092000Z 30003G8KT 23/M09 A2991 RMK A01 T02281093  RH  011%=      5-min Rain = 0
KRLS 092005Z 28002KT 23/M09 A299 RMK A01 T02301094  RH  011%=      5-min Rain = 0
KRLS 092010Z 13002KT 23/M10 A299 RMK A01 T02301097  RH  011%=      5-min Rain = 0
KRLS 092015Z 01003G8KT 23/M09 A299 RMK A01 T02331093  RH  011%=      5-min Rain = 0
KRLS 092020Z 31006KT 23/M09 A299 RMK A01 T02331093  RH  011%=      5-min Rain = 0
KRLS 092025Z 31004KT 23/M09 A2989 RMK A01 T02281094  RH  011%=      5-min Rain = 0
KRLS 092030Z 28003G9KT 23/M10 A2989 RMK A01 T02281095  RH  011%=      5-min Rain = 0
KRLS 092035Z 33005KT 23/M10 A2989 RMK A01 T02281095  RH  011%=      5-min Rain = 0
KRLS 092040Z 33004KT 23/M10 A2989 RMK A01 T02291095  RH  011%=      5-min Rain = 0
KRLS 092045Z 34004KT 23/M10 A2989 RMK A01 T02321096  RH  011%=      5-min Rain = 0
KRLS 092050Z 00001KT 23/M10 A2989 RMK A01 T02321096  RH  011%=      5-min Rain = 0
KRLS 092055Z 05003KT 23/M10 A2989 RMK A01 T02311096  RH  011%=      5-min Rain = 0
KRLS 092100Z 07001KT 23/M10 A2989 RMK A01 T02321097  RH  010%=      5-min Rain = 0
KRLS 092105Z 14001KT 23/M10 A2989 RMK A01 T02321097  RH  010%=      5-min Rain = 0
KRLS 092110Z 08002KT 23/M10 A2988 RMK A01 T02331097  RH  010%=      5-min Rain = 0
KRLS 092115Z 10002KT 23/M10 A2988 RMK A01 T02301097  RH  011%=      5-min Rain = 0
KRLS 092120Z 09003KT 23/M10 A2988 RMK A01 T02311099  RH  010%=      5-min Rain = 0
KRLS 092125Z 02002KT 23/M10 A2988 RMK A01 T02301098  RH  010%=      5-min Rain = 0
KRLS 092130Z 05003KT 23/M10 A2988 RMK A01 T02341098  RH  010%=      5-min Rain = 0
KRLS 092135Z 09003KT 23/M10 A2988 RMK A01 T02331099  RH  010%=      5-min Rain = 0
KRLS 092140Z 10003KT 24/M10 A2987 RMK A01 T02351098  RH  010%=      5-min Rain = 0
KRLS 092145Z 13002G7KT 24/M10 A2987 RMK A01 T02351100  RH  010%=      5-min Rain = 0
KRLS 092150Z 12005KT 24/M10 A2987 RMK A01 T02351100  RH  010%=      5-min Rain = 0
KRLS 092155Z 01002KT 23/M10 A2987 RMK A01 T02331100  RH  010%=      5-min Rain = 0
KRLS 092200Z 31003KT 24/M10 A2987 RMK A01 T02351100  RH  010%=      5-min Rain = 0
KRLS 092205Z 32002KT 24/M10 A2987 RMK A01 T02381100  RH  010%=      5-min Rain = 0
KRLS 092210Z 35004KT 24/M10 A2987 RMK A01 T02351100  RH  010%=      5-min Rain = 0
KRLS 092215Z 03004KT 23/M10 A2987 RMK A01 T02331101  RH  010%=      5-min Rain = 0
KRLS 092220Z 03004KT 24/M10 A2987 RMK A01 T02371101  RH  010%=      5-min Rain = 0
KRLS 092225Z 04009G15KT 23/M09 A2987 RMK A01 T02301086  RH  012%=      5-min Rain = 0
KRLS 092230Z 05015KT 22/M08 A2987 RMK A01 T02201075  RH  013%=      5-min Rain = 0
KRLS 092235Z 05014KT 22/M08 A2987 RMK A01 T02191075  RH  013%=      5-min Rain = 0
KRLS 092240Z 05016G21KT 21/M08 A2987 RMK A01 T02061076  RH  014%=      5-min Rain = 0
KRLS 092245Z 05015KT 21/M08 A2987 RMK A01 T02051075  RH  015%=      5-min Rain = 0
KRLS 092250Z 05017KT 20/M08 A2987 RMK A01 T01981077  RH  015%=      5-min Rain = 0
KRLS 092255Z 05016KT 19/M08 A2987 RMK A01 T01931077  RH  016%=      5-min Rain = 0
KRLS 092300Z 06015KT 19/M08 A2987 RMK A01 T01911077  RH  016%=      5-min Rain = 0
KRLS 092305Z 06013G18KT 19/M08 A2987 RMK A01 T01881077  RH  016%=      5-min Rain = 0
KRLS 092310Z 06014G19KT 19/M08 A2987 RMK A01 T01861077  RH  016%=      5-min Rain = 0
KRLS 092315Z 07015KT 18/M08 A2987 RMK A01 T01801077  RH  017%=      5-min Rain = 0
KRLS 092320Z 07016G23KT 18/M08 A2987 RMK A01 T01781077  RH  017%=      5-min Rain = 0
KRLS 092325Z 07018KT 17/M08 A2987 RMK A01 T01701077  RH  018%=      5-min Rain = 0
KRLS 092330Z 07017KT 17/M08 A2987 RMK A01 T01671077  RH  018%=      5-min Rain = 0
KRLS 092335Z 07014KT 16/M08 A2987 RMK A01 T01641077  RH  019%=      5-min Rain = 0
KRLS 092340Z 07016KT 16/M08 A2987 RMK A01 T01631077  RH  019%=      5-min Rain = 0
KRLS 092345Z 07014KT 16/M08 A2987 RMK A01 T01581077  RH  019%=      5-min Rain = 0
KRLS 092350Z 07014KT 15/M08 A2987 RMK A01 T01541077  RH  020%=      5-min Rain = 0
KRLS 092355Z 07015KT 15/M08 A2987 RMK A01 T01491077  RH  021%=      5-min Rain = 0
KRLS 100000Z 06014KT 15/M08 A2987 RMK A01 T01451078  RH  021%=      5-min Rain = 0
KRLS 100005Z 07013KT 14/M08 A2987 RMK A01 T01391078  RH  022%=      5-min Rain = 0
KRLS 100010Z 07013KT 14/M08 A2988 RMK A01 T01351078  RH  022%=      5-min Rain = 0
KRLS 100015Z 07013KT 13/M08 A2988 RMK A01 T01321078  RH  023%=      5-min Rain = 0
KRLS 100020Z 07013KT 13/M08 A2988 RMK A01 T01271079  RH  023%=      5-min Rain = 0
KRLS 100025Z 07013KT 12/M08 A2988 RMK A01 T01241078  RH  024%=      5-min Rain = 0
KRLS 100030Z 06011KT 12/M08 A2988 RMK A01 T01191079  RH  025%=      5-min Rain = 0
KRLS 100035Z 06011KT 12/M08 A2988 RMK A01 T01161079  RH  025%=      5-min Rain = 0
KRLS 100040Z 07011KT 11/M08 A2988 RMK A01 T01141079  RH  026%=      5-min Rain = 0
KRLS 100045Z 07012KT 11/M08 A2988 RMK A01 T01111079  RH  026%=      5-min Rain = 0
KRLS 100050Z 07011KT 11/M08 A2988 RMK A01 T01081079  RH  026%=      5-min Rain = 0
KRLS 100055Z 06011KT 11/M08 A2989 RMK A01 T01051079  RH  027%=      5-min Rain = 0
KRLS 100100Z 06010KT 10/M08 A2989 RMK A01 T01031079  RH  027%=      5-min Rain = 0
KRLS 100105Z 06010KT 10/M08 A2989 RMK A01 T01011079  RH  028%=      5-min Rain = 0
KRLS 100110Z 06011KT 10/M08 A2989 RMK A01 T00981078  RH  028%=      5-min Rain = 0
KRLS 100115Z 06012KT 10/M08 A2989 RMK A01 T00971077  RH  029%=      5-min Rain = 0
KRLS 100120Z 06010KT 10/M08 A299 RMK A01 T00961079  RH  029%=      5-min Rain = 0
KRLS 100125Z 06010KT 09/M08 A299 RMK A01 T00941078  RH  029%=      5-min Rain = 0
KRLS 100130Z 05009KT 09/M08 A299 RMK A01 T00911080  RH  029%=      5-min Rain = 0
KRLS 100135Z 05010KT 09/M08 A299 RMK A01 T00891080  RH  030%=      5-min Rain = 0
KRLS 100140Z 06011KT 09/M08 A299 RMK A01 T00881078  RH  030%=      5-min Rain = 0
KRLS 100145Z 06010KT 09/M08 A299 RMK A01 T00861078  RH  031%=      5-min Rain = 0
KRLS 100150Z 06010KT 08/M08 A2991 RMK A01 T00841078  RH  031%=      5-min Rain = 0
KRLS 100155Z 06009KT 08/M08 A2991 RMK A01 T00831078  RH  032%=      5-min Rain = 0
KRLS 100200Z 06009KT 08/M08 A2991 RMK A01 T00801077  RH  032%=      5-min Rain = 0
KRLS 100205Z 06009KT 08/M08 A2991 RMK A01 T00771077  RH  033%=      5-min Rain = 0
KRLS 100210Z 06009KT 08/M08 A2991 RMK A01 T00761076  RH  034%=      5-min Rain = 0
KRLS 100215Z 06009KT 07/M08 A2991 RMK A01 T00741076  RH  034%=      5-min Rain = 0
KRLS 100220Z 06009KT 07/M08 A2991 RMK A01 T00721076  RH  034%=      5-min Rain = 0
KRLS 100225Z 06009KT 07/M07 A2991 RMK A01 T00721074  RH  035%=      5-min Rain = 0
KRLS 100230Z 06009KT 07/M07 A2992 RMK A01 T00711074  RH  035%=      5-min Rain = 0
KRLS 100235Z 06009KT 07/M08 A2992 RMK A01 T00701075  RH  035%=      5-min Rain = 0
KRLS 100240Z 06009KT 07/M07 A2992 RMK A01 T00691074  RH  036%=      5-min Rain = 0
KRLS 100245Z 06009KT 07/M07 A2992 RMK A01 T00671074  RH  036%=      5-min Rain = 0
KRLS 100250Z 07010KT 07/M07 A2992 RMK A01 T00661074  RH  037%=      5-min Rain = 0
KRLS 100255Z 06011KT 07/M07 A2992 RMK A01 T00651072  RH  037%=      5-min Rain = 0
KRLS 100300Z 06011KT 07/M07 A2992 RMK A01 T00651072  RH  037%=      5-min Rain = 0
KRLS 100305Z 06011KT 06/M07 A2992 RMK A01 T00641073  RH  037%=      5-min Rain = 0
KRLS 100310Z 06013KT 06/M07 A2992 RMK A01 T00621074  RH  037%=      5-min Rain = 0
KRLS 100315Z 05014KT 06/M08 A2993 RMK A01 T00601075  RH  038%=      5-min Rain = 0
KRLS 100320Z 06013G18KT 06/M08 A2993 RMK A01 T00581075  RH  038%=      5-min Rain = 0
KRLS 100325Z 05012KT 05/M08 A2993 RMK A01 T00541077  RH  039%=      5-min Rain = 0
KRLS 100330Z 05013KT 05/M08 A2993 RMK A01 T00521077  RH  039%=      5-min Rain = 0
KRLS 100335Z 05011KT 05/M08 A2993 RMK A01 T00501078  RH  039%=      5-min Rain = 0
KRLS 100340Z 06010KT 05/M08 A2993 RMK A01 T00471079  RH  040%=      5-min Rain = 0
KRLS 100345Z 06011KT 05/M08 A2993 RMK A01 T00461080  RH  040%=      5-min Rain = 0
KRLS 100350Z 06011KT 04/M08 A2993 RMK A01 T00441080  RH  041%=      5-min Rain = 0
KRLS 100355Z 06013KT 04/M08 A2994 RMK A01 T00431079  RH  041%=      5-min Rain = 0
KRLS 100400Z 06011KT 04/M08 A2994 RMK A01 T00411081  RH  041%=      5-min Rain = 0
KRLS 100405Z 06013KT 04/M08 A2994 RMK A01 T00391081  RH  042%=      5-min Rain = 0
KRLS 100410Z 06012KT 04/M08 A2993 RMK A01 T00381081  RH  042%=      5-min Rain = 0
KRLS 100415Z 07010KT 04/M08 A2993 RMK A01 T00351081  RH  043%=      5-min Rain = 0
KRLS 100420Z 07011KT 03/M08 A2993 RMK A01 T00341081  RH  043%=      5-min Rain = 0
KRLS 100425Z 07011KT 03/M08 A2993 RMK A01 T00331080  RH  044%=      5-min Rain = 0
KRLS 100430Z 07011KT 03/M08 A2993 RMK A01 T00331080  RH  044%=      5-min Rain = 0
KRLS 100435Z 07010KT 03/M08 A2993 RMK A01 T00321080  RH  044%=      5-min Rain = 0
KRLS 100440Z 07010KT 03/M08 A2993 RMK A01 T00311080  RH  044%=      5-min Rain = 0
KRLS 100445Z 06010KT 03/M08 A2994 RMK A01 T00301080  RH  045%=      5-min Rain = 0
KRLS 100450Z 06008KT 03/M08 A2994 RMK A01 T00291081  RH  045%=      5-min Rain = 0
KRLS 100455Z 06009KT 03/M08 A2993 RMK A01 T00281082  RH  045%=      5-min Rain = 0
KRLS 100500Z 06009KT 03/M08 A2993 RMK A01 T00271082  RH  045%=      5-min Rain = 0
KRLS 100505Z 06010KT 03/M08 A2993 RMK A01 T00261082  RH  045%=      5-min Rain = 0
KRLS 100510Z 07010KT 03/M08 A2993 RMK A01 T00261082  RH  046%=      5-min Rain = 0
KRLS 100515Z 07009KT 02/M08 A2993 RMK A01 T00241083  RH  046%=      5-min Rain = 0
KRLS 100520Z 07010KT 02/M08 A2993 RMK A01 T00231083  RH  046%=      5-min Rain = 0
KRLS 100525Z 07009KT 02/M08 A2993 RMK A01 T00211083  RH  046%=      5-min Rain = 0
KRLS 100530Z 07009KT 02/M08 A2993 RMK A01 T00201084  RH  047%=      5-min Rain = 0
KRLS 100535Z 07008KT 02/M08 A2993 RMK A01 T00191084  RH  047%=      5-min Rain = 0
KRLS 100540Z 07009KT 02/M09 A2993 RMK A01 T00171085  RH  047%=      5-min Rain = 0
KRLS 100545Z 06009KT 02/M09 A2994 RMK A01 T00161086  RH  047%=      5-min Rain = 0
KRLS 100550Z 06009KT 02/M09 A2994 RMK A01 T00151087  RH  047%=      5-min Rain = 0
KRLS 100555Z 06010KT 02/M09 A2994 RMK A01 T00151087  RH  047%=      5-min Rain = 0

Page generated in 0.0311 seconds.